createdAt,value
2023-02-01T00:00:31.795Z,11.57
2023-02-01T00:02:58.517Z,11.85
2023-02-01T00:05:25.287Z,9.73
2023-02-01T00:07:52.158Z,10.57
2023-02-01T00:10:19.059Z,11.88
2023-02-01T00:12:46.618Z,15.98
2023-02-01T00:15:13.428Z,13.57
2023-02-01T00:17:40.207Z,12.93
2023-02-01T00:20:07.431Z,10.85
2023-02-01T00:22:34.179Z,11.30
2023-02-01T00:25:00.991Z,11.02
2023-02-01T00:27:27.979Z,14.45
2023-02-01T00:29:57.717Z,13.15
2023-02-01T00:32:24.662Z,11.10
2023-02-01T00:34:51.459Z,16.02
2023-02-01T00:37:19.176Z,11.48
2023-02-01T00:39:45.901Z,10.20
2023-02-01T00:42:12.698Z,11.43
2023-02-01T00:44:39.481Z,10.25
2023-02-01T00:47:06.268Z,12.15
2023-02-01T00:49:33.598Z,8.82
2023-02-01T00:52:00.398Z,9.27
2023-02-01T00:54:27.116Z,11.50
2023-02-01T00:56:53.891Z,8.60
2023-02-01T00:59:20.604Z,11.38
2023-02-01T01:01:47.459Z,8.90
2023-02-01T01:04:14.202Z,13.02
2023-02-01T01:06:40.904Z,10.35
2023-02-01T01:09:08.732Z,12.20
2023-02-01T01:11:38.390Z,15.00
2023-02-01T01:14:08.468Z,13.50
2023-02-01T01:16:36.428Z,9.13
2023-02-01T01:19:03.921Z,12.48
2023-02-01T01:21:31.313Z,11.55
2023-02-01T01:23:58.409Z,18.70
2023-02-01T01:26:28.362Z,11.40
2023-02-01T01:29:00.166Z,12.55
2023-02-01T01:31:28.554Z,13.00
2023-02-01T01:33:57.895Z,12.15
2023-02-01T01:36:26.376Z,13.77
2023-02-01T01:38:53.274Z,13.48
2023-02-01T01:41:30.156Z,8.85
2023-02-01T01:44:06.080Z,14.98
2023-02-01T01:46:36.541Z,16.30
2023-02-01T01:49:12.857Z,14.32
2023-02-01T01:51:45.528Z,11.95
2023-02-01T01:54:18.361Z,21.05
2023-02-01T01:56:50.131Z,12.80
2023-02-01T01:59:17.396Z,11.90
2023-02-01T02:01:45.057Z,13.40
2023-02-01T02:04:12.169Z,13.60
2023-02-01T02:07:02.677Z,15.10
2023-02-01T02:09:29.547Z,13.27
2023-02-01T02:11:56.261Z,17.27
2023-02-01T02:14:24.917Z,11.35
2023-02-01T02:16:51.629Z,9.02
2023-02-01T02:20:13.114Z,19.83
2023-02-01T02:23:07.655Z,10.30
2023-02-01T02:26:02.255Z,12.50
2023-02-01T02:28:53.803Z,15.13
2023-02-01T02:31:29.712Z,11.68
2023-02-01T02:34:16.963Z,12.40
2023-02-01T02:36:49.653Z,9.32
2023-02-01T02:39:34.622Z,14.35
2023-02-01T02:42:39.909Z,13.13
2023-02-01T02:45:49.665Z,15.10
2023-02-01T02:48:22.508Z,14.43
2023-02-01T02:51:24.160Z,15.60
2023-02-01T02:54:27.229Z,14.63
2023-02-01T02:57:14.552Z,15.38
2023-02-01T03:00:02.650Z,14.90
2023-02-01T03:02:51.526Z,17.95
2023-02-01T03:05:18.544Z,18.75
2023-02-01T03:07:52.905Z,17.60
2023-02-01T03:10:41.486Z,27.30
2023-02-01T03:13:28.755Z,24.67
2023-02-01T03:16:10.853Z,33.97
2023-02-01T03:18:49.484Z,28.48
2023-02-01T03:21:57.993Z,21.02
2023-02-01T03:24:36.239Z,19.37
2023-02-01T03:27:32.143Z,19.90
2023-02-01T03:30:08.860Z,17.30
2023-02-01T03:32:57.776Z,14.20
2023-02-01T03:35:45.728Z,20.85
2023-02-01T03:38:37.756Z,11.48
2023-02-01T03:41:28.197Z,20.48
2023-02-01T03:44:16.613Z,15.98
2023-02-01T03:47:04.369Z,15.45
2023-02-01T03:49:36.777Z,15.43
2023-02-01T03:52:08.119Z,16.73
2023-02-01T03:54:36.233Z,13.48
2023-02-01T03:57:09.431Z,15.50
2023-02-01T03:59:41.073Z,15.18
2023-02-01T04:02:08.121Z,13.63
2023-02-01T04:04:36.007Z,10.57
2023-02-01T04:07:03.973Z,14.27
2023-02-01T04:11:57.539Z,18.98
2023-02-01T04:14:24.373Z,17.10
2023-02-01T04:16:51.628Z,14.35
2023-02-01T04:19:18.496Z,12.23
2023-02-01T04:21:45.347Z,14.93
2023-02-01T04:24:12.253Z,18.83
2023-02-01T04:26:39.176Z,15.82
2023-02-01T04:29:05.965Z,16.20
2023-02-01T04:31:33.040Z,13.13
2023-02-01T04:34:00.176Z,13.95
2023-02-01T04:36:27.263Z,11.18
2023-02-01T04:38:54.079Z,13.20
2023-02-01T04:41:21.409Z,19.00
2023-02-01T04:46:16.426Z,19.17
2023-02-01T04:48:43.471Z,19.50
2023-02-01T04:51:11.183Z,24.30
2023-02-01T04:53:38.137Z,17.23
2023-02-01T04:56:05.173Z,16.38
2023-02-01T04:58:31.885Z,32.22
2023-02-01T05:00:58.729Z,16.33
2023-02-01T05:03:25.483Z,29.40
2023-02-01T05:05:54.590Z,26.98
2023-02-01T05:08:23.429Z,18.83
2023-02-01T05:10:50.368Z,25.67
2023-02-01T05:13:35.671Z,21.38
2023-02-01T05:16:02.856Z,28.85
2023-02-01T05:18:29.932Z,49.47
2023-02-01T05:20:56.677Z,29.58
2023-02-01T05:23:23.489Z,23.98
2023-02-01T05:25:50.230Z,50.97
2023-02-01T05:28:17.276Z,32.85
2023-02-01T05:30:44.240Z,27.95
2023-02-01T05:33:11.025Z,29.40
2023-02-01T05:35:37.760Z,21.52
2023-02-01T05:38:04.493Z,17.40
2023-02-01T05:40:31.172Z,19.75
2023-02-01T05:42:57.929Z,18.55
2023-02-01T05:45:24.724Z,18.58
2023-02-01T05:47:51.507Z,19.90
2023-02-01T05:50:18.682Z,22.15
2023-02-01T05:52:45.670Z,16.27
2023-02-01T05:55:12.388Z,20.50
2023-02-01T05:57:39.194Z,19.10
2023-02-01T06:00:06.917Z,11.68
2023-02-01T06:02:39.294Z,14.95
2023-02-01T06:05:07.526Z,15.68
2023-02-01T06:07:34.405Z,16.50
2023-02-01T06:10:01.280Z,17.20
2023-02-01T06:12:29.160Z,11.32
2023-02-01T06:14:55.865Z,20.95
2023-02-01T06:17:22.712Z,16.02
2023-02-01T06:19:49.496Z,11.73
2023-02-01T06:22:16.323Z,14.93
2023-02-01T06:24:44.303Z,13.00
2023-02-01T06:27:11.099Z,17.52
2023-02-01T06:29:37.779Z,18.20
2023-02-01T06:32:04.566Z,14.93
2023-02-01T06:34:31.394Z,13.50
2023-02-01T06:36:58.113Z,11.85
2023-02-01T06:39:24.925Z,15.70
2023-02-01T06:41:51.791Z,24.05
2023-02-01T06:44:18.976Z,23.90
2023-02-01T06:46:45.763Z,9.82
2023-02-01T06:49:12.721Z,14.40
2023-02-01T06:51:39.458Z,15.27
2023-02-01T06:54:06.209Z,12.90
2023-02-01T06:56:32.941Z,6.78
2023-02-01T06:58:59.660Z,8.52
2023-02-01T07:01:27.285Z,11.10
2023-02-01T07:03:53.967Z,8.30
2023-02-01T07:06:21.074Z,13.13
2023-02-01T07:08:47.961Z,11.95
2023-02-01T07:11:16.582Z,9.63
2023-02-01T07:13:43.630Z,8.18
2023-02-01T07:16:16.511Z,9.15
2023-02-01T07:18:43.779Z,12.50
2023-02-01T07:23:37.686Z,10.95
2023-02-01T07:28:35.134Z,12.95
2023-02-01T07:31:10.373Z,5.90
2023-02-01T07:33:37.819Z,7.78
2023-02-01T07:36:07.261Z,8.40
2023-02-01T07:38:34.081Z,10.68
2023-02-01T07:41:02.316Z,6.35
2023-02-01T07:43:29.668Z,11.02
2023-02-01T07:45:57.463Z,12.35
2023-02-01T07:48:25.731Z,11.07
2023-02-01T07:51:06.463Z,8.90
2023-02-01T07:53:34.947Z,12.98
2023-02-01T07:56:02.550Z,10.68
2023-02-01T07:58:29.560Z,12.80
2023-02-01T08:01:15.216Z,12.02
2023-02-01T08:03:42.089Z,15.20
2023-02-01T08:06:08.909Z,12.05
2023-02-01T08:08:35.719Z,25.35
2023-02-01T08:11:04.851Z,14.77
2023-02-01T08:13:31.949Z,17.42
2023-02-01T08:16:03.189Z,16.45
2023-02-01T08:18:30.764Z,14.38
2023-02-01T08:20:58.004Z,12.82
2023-02-01T08:23:25.476Z,16.83
2023-02-01T08:25:52.183Z,24.17
2023-02-01T08:28:18.926Z,14.88
2023-02-01T08:30:46.178Z,14.13
2023-02-01T08:35:43.610Z,9.48
2023-02-01T08:38:11.452Z,13.00
2023-02-01T08:43:04.923Z,13.85
2023-02-01T08:45:31.812Z,19.25
2023-02-01T08:47:58.771Z,16.48
2023-02-01T08:50:26.697Z,18.58
2023-02-01T08:52:54.696Z,18.25
2023-02-01T08:55:21.815Z,13.73
2023-02-01T09:00:18.201Z,13.95
2023-02-01T09:02:45.408Z,17.58
2023-02-01T09:07:39.892Z,15.50
2023-02-01T09:10:07.374Z,17.83
2023-02-01T09:12:35.378Z,9.50
2023-02-01T09:15:02.618Z,22.05
2023-02-01T09:17:30.835Z,22.15
2023-02-01T09:19:57.832Z,19.38
2023-02-01T09:22:25.311Z,17.30
2023-02-01T09:24:55.085Z,12.45
2023-02-01T09:27:22.516Z,19.33
2023-02-01T09:29:53.803Z,17.60
2023-02-01T09:32:22.576Z,14.82
2023-02-01T09:34:50.637Z,23.92
2023-02-01T09:37:17.387Z,15.32
2023-02-01T09:39:44.509Z,19.92
2023-02-01T09:45:04.459Z,14.50
2023-02-01T09:47:32.707Z,11.65
2023-02-01T09:50:07.602Z,16.83
2023-02-01T09:52:41.694Z,16.38
2023-02-01T09:55:21.273Z,18.23
2023-02-01T09:57:58.621Z,19.85
2023-02-01T10:00:29.850Z,17.77
2023-02-01T10:02:57.870Z,22.00
2023-02-01T10:05:42.755Z,16.40
2023-02-01T10:08:31.708Z,13.63
2023-02-01T10:11:49.343Z,15.70
2023-02-01T10:14:22.397Z,16.50
2023-02-01T10:16:55.844Z,15.63
2023-02-01T10:19:49.737Z,14.77
2023-02-01T10:23:04.999Z,12.75
2023-02-01T10:25:32.631Z,13.27
2023-02-01T10:28:02.814Z,11.98
2023-02-01T10:30:38.834Z,12.25
2023-02-01T10:33:28.664Z,10.70
2023-02-01T10:36:31.138Z,13.85
2023-02-01T10:39:00.230Z,16.05
2023-02-01T10:41:34.119Z,21.60
2023-02-01T10:44:03.352Z,9.63
2023-02-01T10:46:31.997Z,9.90
2023-02-01T10:49:03.336Z,9.82
2023-02-01T10:51:36.139Z,9.63
2023-02-01T10:54:17.716Z,13.80
2023-02-01T10:56:48.794Z,8.07
2023-02-01T10:59:21.543Z,9.70
2023-02-01T11:01:50.143Z,9.07
2023-02-01T11:04:21.189Z,10.43
2023-02-01T11:06:52.134Z,10.02
2023-02-01T11:09:25.538Z,8.52
2023-02-01T11:11:52.430Z,11.95
2023-02-01T11:14:26.984Z,11.70
2023-02-01T11:17:02.310Z,8.68
2023-02-01T11:19:29.852Z,7.32
2023-02-01T11:22:00.372Z,11.13
2023-02-01T11:24:34.451Z,8.60
2023-02-01T11:27:07.186Z,7.28
2023-02-01T11:29:40.657Z,6.22
2023-02-01T11:32:11.035Z,6.07
2023-02-01T11:34:50.371Z,5.18
2023-02-01T11:37:26.788Z,5.65
2023-02-01T11:40:00.367Z,5.50
2023-02-01T11:42:28.944Z,5.53
2023-02-01T11:45:26.581Z,6.60
2023-02-01T11:47:54.776Z,5.78
2023-02-01T11:50:33.666Z,11.23
2023-02-01T11:53:26.381Z,9.30
2023-02-01T11:56:11.018Z,10.02
2023-02-01T11:59:00.304Z,9.43
2023-02-01T12:01:57.782Z,10.82
2023-02-01T12:04:28.058Z,10.05
2023-02-01T12:07:05.078Z,11.27
2023-02-01T12:09:49.814Z,11.02
2023-02-01T12:12:50.866Z,11.85
2023-02-01T12:15:36.526Z,10.27
2023-02-01T12:18:25.049Z,10.40
2023-02-01T12:20:57.969Z,9.13
2023-02-01T12:23:30.694Z,10.25
2023-02-01T12:26:00.802Z,11.73
2023-02-01T12:29:09.653Z,11.60
2023-02-01T12:32:06.982Z,9.68
2023-02-01T12:34:49.360Z,10.10
2023-02-01T12:37:57.599Z,9.40
2023-02-01T12:40:51.578Z,7.20
2023-02-01T12:43:48.617Z,11.48
2023-02-01T12:46:27.041Z,9.35
2023-02-01T12:49:09.722Z,15.18
2023-02-01T12:51:40.247Z,7.22
2023-02-01T12:54:16.222Z,9.90
2023-02-01T12:56:56.404Z,7.00
2023-02-01T12:59:36.715Z,8.48
2023-02-01T13:02:25.235Z,6.68
2023-02-01T13:05:12.584Z,11.40
2023-02-01T13:08:01.348Z,9.15
2023-02-01T13:10:51.557Z,7.28
2023-02-01T13:13:18.597Z,7.78
2023-02-01T13:15:50.782Z,9.27
2023-02-01T13:18:27.461Z,7.68
2023-02-01T13:21:04.704Z,7.50
2023-02-01T13:23:38.876Z,9.32
2023-02-01T13:26:05.708Z,9.10
2023-02-01T13:28:42.254Z,7.07
2023-02-01T13:31:24.217Z,7.93
2023-02-01T13:34:28.363Z,8.50
2023-02-01T13:37:19.098Z,24.83
2023-02-01T13:40:29.628Z,10.40
2023-02-01T13:43:13.299Z,7.20
2023-02-01T13:45:47.676Z,6.20
2023-02-01T13:48:34.357Z,7.88
2023-02-01T13:51:02.089Z,6.68
2023-02-01T13:53:44.578Z,2.72
2023-02-01T13:56:17.946Z,8.15
2023-02-01T13:58:46.798Z,13.50
2023-02-01T14:01:22.704Z,5.97
2023-02-01T14:03:50.769Z,4.38
2023-02-01T14:06:36.423Z,2.83
2023-02-01T14:09:09.145Z,4.15
2023-02-01T14:11:44.825Z,2.65
2023-02-01T14:14:17.341Z,1.90
2023-02-01T14:16:53.186Z,0.93
2023-02-01T14:19:27.854Z,0.38
2023-02-01T14:22:02.066Z,0.60
2023-02-01T14:24:37.732Z,0.40
2023-02-01T14:27:26.469Z,1.17
2023-02-01T14:30:00.463Z,0.20
2023-02-01T14:32:37.088Z,1.52
2023-02-01T14:35:08.855Z,0.20
2023-02-01T14:37:38.983Z,0.85
2023-02-01T14:40:15.513Z,0.85
2023-02-01T14:42:42.262Z,1.05
2023-02-01T14:45:24.698Z,0.35
2023-02-01T14:48:15.855Z,0.52
2023-02-01T14:50:45.301Z,0.63
2023-02-01T14:53:14.773Z,2.60
2023-02-01T14:56:07.383Z,0.35
2023-02-01T14:59:01.357Z,0.17
2023-02-01T15:01:38.727Z,1.10
2023-02-01T15:04:11.025Z,0.20
2023-02-01T15:06:48.623Z,1.05
2023-02-01T15:09:30.273Z,0.25
2023-02-01T15:12:13.573Z,0.20
2023-02-01T15:14:52.221Z,0.50
2023-02-01T15:17:27.630Z,0.28
2023-02-01T15:19:59.334Z,0.40
2023-02-01T15:22:28.127Z,0.40
2023-02-01T15:24:56.946Z,0.03
2023-02-01T15:27:24.294Z,1.15
2023-02-01T15:29:52.002Z,1.98
2023-02-01T15:32:34.374Z,0.45
2023-02-01T15:35:02.533Z,0.70
2023-02-01T15:37:31.522Z,1.92
2023-02-01T15:40:20.543Z,0.98
2023-02-01T15:42:59.581Z,0.30
2023-02-01T15:45:30.925Z,0.73
2023-02-01T15:47:59.199Z,4.30
2023-02-01T15:50:34.365Z,1.55
2023-02-01T15:53:01.258Z,0.28
2023-02-01T15:55:43.874Z,0.45
2023-02-01T15:58:18.977Z,1.17
2023-02-01T16:00:50.211Z,0.75
2023-02-01T16:03:39.563Z,0.43
2023-02-01T16:06:27.093Z,0.55
2023-02-01T16:08:59.991Z,1.17
2023-02-01T16:11:26.802Z,0.75
2023-02-01T16:13:53.553Z,0.73
2023-02-01T16:16:20.435Z,0.38
2023-02-01T16:18:47.291Z,0.98
2023-02-01T16:21:14.135Z,1.00
2023-02-01T16:23:40.881Z,0.40
2023-02-01T16:26:07.919Z,1.08
2023-02-01T16:28:35.111Z,0.40
2023-02-01T16:31:02.819Z,0.70
2023-02-01T16:33:29.799Z,0.30
2023-02-01T16:36:00.964Z,0.82
2023-02-01T16:38:27.894Z,0.93
2023-02-01T16:40:54.701Z,0.80
2023-02-01T16:43:27.272Z,4.97
2023-02-01T16:45:56.442Z,0.60
2023-02-01T16:48:36.185Z,0.75
2023-02-01T16:51:11.987Z,0.43
2023-02-01T16:53:53.599Z,1.77
2023-02-01T16:56:24.310Z,1.05
2023-02-01T16:58:51.374Z,1.55
2023-02-01T17:01:20.174Z,0.73
2023-02-01T17:03:47.878Z,0.73
2023-02-01T17:06:18.362Z,0.88
2023-02-01T17:08:53.831Z,2.17
2023-02-01T17:11:21.335Z,1.13
2023-02-01T17:13:48.334Z,1.20
2023-02-01T17:16:31.592Z,1.40
2023-02-01T17:19:06.677Z,1.90
2023-02-01T17:21:42.837Z,0.90
2023-02-01T17:24:15.477Z,0.47
2023-02-01T17:26:43.475Z,0.95
2023-02-01T17:29:10.771Z,1.75
2023-02-01T17:31:40.842Z,1.52
2023-02-01T17:34:09.442Z,2.78
2023-02-01T17:36:36.635Z,1.70
2023-02-01T17:41:33.924Z,0.75
2023-02-01T17:44:01.051Z,2.38
2023-02-01T17:48:55.794Z,1.42
2023-02-01T17:51:25.243Z,7.03
2023-02-01T17:53:51.971Z,2.17
2023-02-01T17:56:21.932Z,1.40
2023-02-01T17:58:49.962Z,3.30
2023-02-01T18:01:23.607Z,1.88
2023-02-01T18:03:52.054Z,2.63
2023-02-01T18:06:27.678Z,3.35
2023-02-01T18:08:54.817Z,1.40
2023-02-01T18:11:23.608Z,1.92
2023-02-01T18:13:53.002Z,2.63
2023-02-01T18:16:21.357Z,1.85
2023-02-01T18:18:48.772Z,1.85
2023-02-01T18:21:17.738Z,2.83
2023-02-01T18:23:45.543Z,1.45
2023-02-01T18:26:14.273Z,6.13
2023-02-01T18:28:42.554Z,2.33
2023-02-01T18:31:30.996Z,4.78
2023-02-01T18:33:59.844Z,4.70
2023-02-01T18:36:27.868Z,4.32
2023-02-01T18:38:57.653Z,8.02
2023-02-01T18:41:25.362Z,7.72
2023-02-01T18:43:52.810Z,6.35
2023-02-01T18:46:21.721Z,10.13
2023-02-01T18:48:48.744Z,5.57
2023-02-01T18:51:20.470Z,2.95
2023-02-01T18:53:48.538Z,4.88
2023-02-01T18:56:18.150Z,7.40
2023-02-01T18:58:45.069Z,6.07
2023-02-01T19:01:19.847Z,8.57
2023-02-01T19:03:53.018Z,6.18
2023-02-01T19:06:30.845Z,7.10
2023-02-01T19:08:57.651Z,8.45
2023-02-01T19:11:24.816Z,8.13
2023-02-01T19:16:18.508Z,8.30
2023-02-01T19:18:47.966Z,5.50
2023-02-01T19:21:15.549Z,3.55
2023-02-01T19:23:43.070Z,4.93
2023-02-01T19:26:14.836Z,3.83
2023-02-01T19:28:44.694Z,4.55
2023-02-01T19:31:11.522Z,3.40
2023-02-01T19:33:38.836Z,5.90
2023-02-01T19:38:34.174Z,3.17
2023-02-01T19:41:01.476Z,3.10
2023-02-01T19:43:28.875Z,2.78
2023-02-01T19:45:56.108Z,5.60
2023-02-01T19:48:23.159Z,4.35
2023-02-01T19:50:50.118Z,4.18
2023-02-01T19:53:16.864Z,4.70
2023-02-01T19:55:47.196Z,6.60
2023-02-01T19:58:14.752Z,7.35
2023-02-01T20:00:41.154Z,5.45
2023-02-01T20:05:35.157Z,2.95
2023-02-01T20:08:03.493Z,3.38
2023-02-01T20:10:30.468Z,2.53
2023-02-01T20:12:57.226Z,7.55
2023-02-01T20:15:27.035Z,9.65
2023-02-01T20:17:54.181Z,5.75
2023-02-01T20:20:20.908Z,7.45
2023-02-01T20:22:47.758Z,7.72
2023-02-01T20:25:14.879Z,16.15
2023-02-01T20:27:42.585Z,7.57
2023-02-01T20:30:09.797Z,6.88
2023-02-01T20:32:36.594Z,6.60
2023-02-01T20:35:03.483Z,8.07
2023-02-01T20:37:30.559Z,14.88
2023-02-01T20:39:57.306Z,6.20
2023-02-01T20:42:24.294Z,9.15
2023-02-01T20:44:51.175Z,8.93
2023-02-01T20:47:18.262Z,11.65
2023-02-01T20:49:45.445Z,10.52
2023-02-01T20:52:12.346Z,8.10
2023-02-01T20:54:39.217Z,10.15
2023-02-01T20:57:06.434Z,8.40
2023-02-01T21:01:59.958Z,10.80
2023-02-01T21:04:27.648Z,7.65
2023-02-01T21:06:55.615Z,11.20
2023-02-01T21:09:23.265Z,8.13
2023-02-01T21:11:49.992Z,7.03
2023-02-01T21:14:16.917Z,12.20
2023-02-01T21:16:43.964Z,7.95
2023-02-01T21:19:12.579Z,7.95
2023-02-01T21:21:39.270Z,5.93
2023-02-01T21:24:06.325Z,8.40
2023-02-01T21:26:40.989Z,7.00
2023-02-01T21:29:12.949Z,6.70
2023-02-01T21:31:40.575Z,7.20
2023-02-01T21:34:07.784Z,7.65
2023-02-01T21:39:03.747Z,6.53
2023-02-01T21:41:51.580Z,9.63
2023-02-01T21:44:18.498Z,8.50
2023-02-01T21:46:45.258Z,10.98
2023-02-01T21:49:12.055Z,8.65
2023-02-01T21:51:39.155Z,6.03
2023-02-01T21:54:07.589Z,5.68
2023-02-01T21:56:34.476Z,9.32
2023-02-01T21:59:01.315Z,11.15
2023-02-01T22:01:28.274Z,9.50
2023-02-01T22:03:55.112Z,8.85
2023-02-01T22:06:25.959Z,7.88
2023-02-01T22:08:53.308Z,9.85
2023-02-01T22:11:20.004Z,11.40
2023-02-01T22:13:47.090Z,11.93
2023-02-01T22:18:42.901Z,9.30
2023-02-01T22:21:09.791Z,6.95
2023-02-01T22:23:36.498Z,8.77
2023-02-01T22:26:09.166Z,8.23
2023-02-01T22:28:36.960Z,10.10
2023-02-01T22:31:05.490Z,5.50
2023-02-01T22:33:33.616Z,6.43
2023-02-01T22:36:00.887Z,7.60
2023-02-01T22:40:58.569Z,7.28
2023-02-01T22:43:25.521Z,8.90
2023-02-01T22:45:53.240Z,8.77
2023-02-01T22:48:20.349Z,5.43
2023-02-01T22:53:13.738Z,8.93
2023-02-01T22:55:42.331Z,4.25
2023-02-01T22:58:09.088Z,7.35
2023-02-01T23:00:35.802Z,6.85
2023-02-01T23:03:02.636Z,9.88
2023-02-01T23:05:29.507Z,8.80
2023-02-01T23:07:56.257Z,7.35
2023-02-01T23:10:23.210Z,8.93
2023-02-01T23:12:50.070Z,10.38
2023-02-01T23:15:17.518Z,11.32
2023-02-01T23:17:44.863Z,6.20
2023-02-01T23:20:17.032Z,5.72
2023-02-01T23:22:45.561Z,6.65
2023-02-01T23:25:14.665Z,9.15
2023-02-01T23:27:41.896Z,9.43
2023-02-01T23:32:36.741Z,10.93
2023-02-01T23:35:05.380Z,6.63
2023-02-01T23:37:32.188Z,6.82
2023-02-01T23:39:58.892Z,13.35
2023-02-01T23:42:25.647Z,8.63
2023-02-01T23:44:52.339Z,5.13
2023-02-01T23:47:19.112Z,7.80
2023-02-01T23:49:45.811Z,7.63
2023-02-01T23:52:12.586Z,13.32
2023-02-01T23:54:39.386Z,6.95
2023-02-01T23:57:06.163Z,10.23
2023-02-01T23:59:32.834Z,8.52
